Time;durP1;ratioP1;P1;durP2;ratioP2;P2;SDS_P1;SDS_P2;PMS_P1;PMS_P2;Temp;Humidity;BMP_temperature;BMP_pressure;BME280_temperature;BME280_humidity;BME280_pressure;Samples;Min_cycle;Max_cycle;Signal;HPM_P1;HPM_P2
2023/01/19 00:00:14;;;;;;;3.55;0.77;;;;;;;3.27;100.00;99638.81;5059324;28;20518;-72
2023/01/19 00:02:39;;;;;;;4.30;0.60;;;;;;;3.36;100.00;99638.16;5056421;28;20059;-72
2023/01/19 00:05:05;;;;;;;9.70;0.70;;;;;;;3.38;100.00;99639.97;5058018;28;20025;-71
2023/01/19 00:07:31;;;;;;;7.00;0.85;;;;;;;3.35;100.00;99658.09;5058257;28;20103;-73
2023/01/19 00:09:57;;;;;;;4.65;0.88;;;;;;;3.30;100.00;99664.00;5059801;28;20194;-73
2023/01/19 00:12:22;;;;;;;11.73;1.48;;;;;;;3.19;100.00;99666.31;5057196;28;20043;-73
2023/01/19 00:14:48;;;;;;;8.60;1.27;;;;;;;3.04;100.00;99657.25;5058308;28;20028;-73
2023/01/19 00:17:13;;;;;;;4.68;0.70;;;;;;;2.90;100.00;99655.97;5058776;28;20049;-73
2023/01/19 00:19:38;;;;;;;6.22;0.52;;;;;;;2.82;100.00;99662.69;5058756;28;20037;-73
2023/01/19 00:22:04;;;;;;;5.93;0.60;;;;;;;2.81;100.00;99663.53;5060172;28;20108;-72
2023/01/19 00:24:30;;;;;;;5.90;0.98;;;;;;;2.82;100.00;99670.47;5056709;28;20204;-72
2023/01/19 00:26:56;;;;;;;7.95;0.63;;;;;;;2.83;100.00;99664.44;5058847;28;20060;-73
2023/01/19 00:29:22;;;;;;;4.43;0.80;;;;;;;2.83;100.00;99669.63;5057548;28;20071;-72
2023/01/19 00:31:48;;;;;;;4.75;0.73;;;;;;;2.82;100.00;99670.47;5052666;28;20114;-73
2023/01/19 00:34:13;;;;;;;4.60;0.68;;;;;;;2.80;100.00;99669.56;5051363;28;20048;-72
2023/01/19 00:36:39;;;;;;;7.38;0.77;;;;;;;2.77;100.00;99674.66;5045688;28;20677;-72
2023/01/19 00:39:04;;;;;;;12.68;1.15;;;;;;;2.72;100.00;99674.53;5045914;28;20021;-73
2023/01/19 00:44:14;;;;;;;4.88;1.20;;;;;;;2.62;100.00;99677.66;5052345;28;20035;-73
2023/01/19 00:46:39;;;;;;;12.80;1.20;;;;;;;2.63;100.00;99685.53;5051539;28;20037;-73
2023/01/19 00:49:05;;;;;;;6.20;0.55;;;;;;;2.55;100.00;99697.41;5055854;28;20495;-73
2023/01/19 00:51:31;;;;;;;5.28;0.70;;;;;;;2.51;100.00;99686.03;5059110;28;20035;-73
2023/01/19 00:53:58;;;;;;;8.05;0.65;;;;;;;2.50;100.00;99680.81;5057285;28;20097;-73
2023/01/19 00:56:24;;;;;;;10.40;1.00;;;;;;;2.48;100.00;99682.47;5054721;28;20043;-73
2023/01/19 00:58:49;;;;;;;11.48;1.48;;;;;;;2.47;100.00;99673.81;5058331;28;20032;-73
2023/01/19 01:01:15;;;;;;;6.90;0.95;;;;;;;2.49;100.00;99686.81;5055464;28;20435;-73
2023/01/19 01:03:40;;;;;;;7.25;1.20;;;;;;;2.52;100.00;99692.09;5060435;28;20155;-73
2023/01/19 01:06:07;;;;;;;6.93;0.60;;;;;;;2.53;100.00;99699.94;5062514;28;20111;-74
2023/01/19 01:08:33;;;;;;;6.07;0.68;;;;;;;2.54;100.00;99708.63;5056494;28;20362;-73
2023/01/19 01:10:58;;;;;;;11.77;1.33;;;;;;;2.56;100.00;99709.53;5061650;28;20024;-74
2023/01/19 01:13:24;;;;;;;10.55;2.55;;;;;;;2.57;100.00;99716.50;5062412;28;20035;-73
2023/01/19 01:15:51;;;;;;;5.80;0.77;;;;;;;2.57;100.00;99721.69;5054457;28;20468;-74
2023/01/19 01:18:16;;;;;;;5.55;1.10;;;;;;;2.56;100.00;99727.72;5057785;28;20033;-72
2023/01/19 01:20:41;;;;;;;4.07;0.65;;;;;;;2.56;100.00;99730.31;5054214;28;20084;-74
2023/01/19 01:23:07;;;;;;;4.75;0.57;;;;;;;2.21;100.00;99753.44;5054985;28;20025;-74
2023/01/19 01:25:36;;;;;;;8.05;0.80;;;;;;;1.98;100.00;99755.28;5057373;28;20029;-73
2023/01/19 01:28:01;;;;;;;3.20;0.45;;;;;;;1.75;100.00;99758.00;5054646;28;20029;-72
2023/01/19 01:30:27;;;;;;;5.53;0.38;;;;;;;1.60;100.00;99758.34;5057668;28;20479;-74
2023/01/19 01:32:52;;;;;;;3.45;0.60;;;;;;;1.53;100.00;99753.75;5059527;28;20020;-74
2023/01/19 01:35:17;;;;;;;6.28;0.40;;;;;;;1.48;100.00;99755.31;5059065;28;20040;-74
2023/01/19 01:37:43;;;;;;;5.82;0.30;;;;;;;1.45;100.00;99752.59;5059459;28;20085;-74
2023/01/19 01:40:12;;;;;;;0.70;0.08;;;;;;;1.47;100.00;99757.00;5058051;28;20056;-73
2023/01/19 01:42:39;;;;;;;4.80;0.68;;;;;;;1.49;100.00;99765.75;5057557;28;20031;-74
2023/01/19 01:45:23;;;;;;;0.65;0.20;;;;;;;1.51;100.00;99768.38;5057593;28;20106;-74
2023/01/19 01:47:48;;;;;;;;;;;;;;;1.51;100.00;99769.25;5048365;28;20060;-73
2023/01/19 01:50:23;;;;;;;1.75;0.52;;;;;;;1.54;100.00;99763.31;5054328;28;20572;-74
2023/01/19 01:53:03;;;;;;;2.85;0.63;;;;;;;1.57;100.00;99768.59;5055323;28;20112;-74
2023/01/19 01:55:31;;;;;;;5.93;0.47;;;;;;;1.61;100.00;99775.66;5047032;28;20037;-73
2023/01/19 01:58:01;;;;;;;2.35;0.55;;;;;;;1.65;100.00;99766.28;5054974;28;20035;-73
2023/01/19 02:02:49;;;;;;;6.07;0.50;;;;;;;1.66;100.00;99779.28;5053985;28;20040;-74
2023/01/19 02:03:13;;;;;;;12.65;0.95;;;;;;;1.69;100.00;99789.75;5054142;28;20128;-74
2023/01/19 02:05:39;;;;;;;2.75;0.70;;;;;;;1.69;100.00;99781.97;5050543;28;20107;-74
2023/01/19 02:13:48;;;;;;;6.03;1.15;;;;;;;1.66;100.00;99813.00;5055394;28;20393;-75
2023/01/19 02:16:15;;;;;;;10.13;0.40;;;;;;;1.58;100.00;99817.03;5051175;28;20024;-74
2023/01/19 02:18:42;;;;;;;7.00;1.02;;;;;;;1.45;100.00;99807.03;5050257;28;20032;-75
2023/01/19 02:21:13;;;;;;;5.28;0.82;;;;;;;1.39;100.00;99809.44;5053371;28;20033;-74
2023/01/19 02:23:44;;;;;;;1.67;0.52;;;;;;;1.31;100.00;99807.41;5054050;28;20034;-74
2023/01/19 02:26:31;;;;;;;1.45;0.65;;;;;;;1.21;100.00;99813.09;5056663;28;20032;-74
2023/01/19 02:29:02;;;;;;;6.82;0.68;;;;;;;1.17;100.00;99808.63;5043870;28;20175;-74
2023/01/19 02:31:29;;;;;;;5.32;0.30;;;;;;;1.19;100.00;99786.22;5051137;28;20039;-74
2023/01/19 02:33:56;;;;;;;0.65;0.30;;;;;;;1.20;100.00;99788.00;5057871;28;20598;-73
2023/01/19 02:36:27;;;;;;;3.67;0.63;;;;;;;1.21;100.00;99787.19;5059101;28;20108;-74
2023/01/19 02:38:58;;;;;;;7.75;0.47;;;;;;;1.25;100.00;99777.78;5063999;28;20032;-74
2023/01/19 02:41:29;;;;;;;2.72;0.38;;;;;;;1.28;100.00;99794.34;5060937;28;20052;-74
2023/01/19 02:43:57;;;;;;;4.13;0.73;;;;;;;1.31;100.00;99804.81;5054724;28;20051;-73
2023/01/19 02:46:23;;;;;;;7.75;0.68;;;;;;;1.34;100.00;99811.84;5055037;28;20025;-74
2023/01/19 02:48:48;;;;;;;10.38;0.70;;;;;;;1.37;100.00;99816.25;5059263;28;20481;-74
2023/01/19 02:51:21;;;;;;;1.98;0.47;;;;;;;1.39;100.00;99805.13;5054131;28;20064;-73
2023/01/19 02:54:19;;;;;;;2.90;0.15;;;;;;;1.45;100.00;99809.63;5059615;28;20131;-73
2023/01/19 02:56:53;;;;;;;4.15;0.43;;;;;;;1.44;100.00;99806.16;5044532;28;20445;-74
2023/01/19 02:59:40;;;;;;;5.53;1.08;;;;;;;1.47;100.00;99805.41;5062287;28;20099;-73
2023/01/19 03:02:32;;;;;;;3.72;0.38;;;;;;;1.46;100.00;99816.59;5052712;28;20453;-74
2023/01/19 03:05:24;;;;;;;0.60;0.40;;;;;;;1.46;100.00;99842.50;5058172;28;20027;-73
2023/01/19 03:08:04;;;;;;;6.22;0.55;;;;;;;1.46;100.00;99837.31;5059891;28;20032;-74
2023/01/19 03:11:05;;;;;;;7.53;0.75;;;;;;;1.29;100.00;99814.25;5060534;28;20033;-74
2023/01/19 03:13:58;;;;;;;4.07;0.82;;;;;;;1.20;100.00;99819.09;5063113;28;20024;-74
2023/01/19 03:16:47;;;;;;;7.00;1.10;;;;;;;1.05;100.00;99803.84;5056810;28;20025;-74
2023/01/19 03:19:20;;;;;;;5.78;0.85;;;;;;;0.98;100.00;99801.88;5051800;28;20030;-74
2023/01/19 03:21:49;;;;;;;5.40;0.73;;;;;;;0.95;100.00;99804.31;5053070;28;20021;-73
2023/01/19 03:24:16;;;;;;;14.80;1.27;;;;;;;0.97;100.00;99805.28;5058620;28;20025;-74
2023/01/19 03:26:47;;;;;;;7.40;0.80;;;;;;;0.97;100.00;99806.16;5057101;28;20029;-73
2023/01/19 03:29:16;;;;;;;10.32;1.40;;;;;;;1.00;100.00;99810.56;5053645;28;20032;-74
2023/01/19 03:31:45;;;;;;;8.95;1.25;;;;;;;1.05;100.00;99808.16;5056512;28;20029;-74
2023/01/19 03:34:13;;;;;;;18.27;1.17;;;;;;;1.08;100.00;99810.88;5056855;28;20406;-74
2023/01/19 03:36:39;;;;;;;11.00;1.70;;;;;;;1.08;100.00;99818.63;5059759;28;20091;-75
2023/01/19 03:39:08;;;;;;;9.50;0.90;;;;;;;1.10;100.00;99829.94;5055362;28;20485;-74
2023/01/19 03:41:36;;;;;;;2.40;1.00;;;;;;;1.10;100.00;99836.00;5053375;28;20158;-73
2023/01/19 03:44:05;;;;;;;8.50;1.30;;;;;;;1.14;100.00;99840.47;5057872;28;20480;-74
2023/01/19 03:46:31;;;;;;;3.40;1.23;;;;;;;1.27;100.00;99840.94;5057384;28;20028;-75
2023/01/19 03:48:57;;;;;;;20.45;2.28;;;;;;;1.39;100.00;99837.94;5059991;28;20116;-73
2023/01/19 03:51:23;;;;;;;13.75;1.33;;;;;;;1.50;100.00;99839.19;5067627;28;20532;-74
2023/01/19 03:53:48;;;;;;;13.63;1.55;;;;;;;1.66;100.00;99833.75;5063310;28;20107;-73
2023/01/19 03:56:22;;;;;;;15.85;1.83;;;;;;;1.82;100.00;99842.09;5055670;28;21972;-73
2023/01/19 03:58:48;;;;;;;11.20;2.30;;;;;;;1.96;100.00;99839.97;5057428;28;20401;-74
2023/01/19 04:01:14;;;;;;;16.58;2.08;;;;;;;2.05;100.00;99844.59;5059212;28;20025;-73
2023/01/19 04:03:41;;;;;;;12.82;1.23;;;;;;;2.17;100.00;99842.41;5056282;28;20566;-73
2023/01/19 04:06:08;;;;;;;13.68;1.05;;;;;;;2.27;100.00;99849.69;5055205;28;20040;-73
2023/01/19 04:08:33;;;;;;;21.42;1.90;;;;;;;2.32;100.00;99849.84;5059410;28;20078;-73
2023/01/19 04:10:58;;;;;;;22.60;2.22;;;;;;;2.39;100.00;99850.94;5057087;28;20025;-73
2023/01/19 04:13:26;;;;;;;18.00;1.75;;;;;;;2.48;100.00;99846.03;5054564;28;20028;-73
2023/01/19 04:15:52;;;;;;;11.77;1.33;;;;;;;2.54;100.00;99841.06;5059887;28;20021;-73
2023/01/19 04:18:18;;;;;;;21.45;2.08;;;;;;;2.59;100.00;99849.00;5047827;28;20048;-73
2023/01/19 04:20:43;;;;;;;19.50;2.40;;;;;;;2.60;100.00;99848.16;5044503;28;20391;-74
2023/01/19 04:23:09;;;;;;;23.08;1.88;;;;;;;2.64;100.00;99848.31;5053666;28;20044;-73
2023/01/19 04:25:34;;;;;;;16.02;1.67;;;;;;;2.67;100.00;99853.63;5056650;28;20037;-73
2023/01/19 04:27:59;;;;;;;9.52;1.40;;;;;;;2.78;100.00;99847.88;5056864;28;20094;-73
2023/01/19 04:30:26;;;;;;;12.45;1.35;;;;;;;2.80;100.00;99851.41;5054246;28;20447;-74
2023/01/19 04:32:52;;;;;;;16.13;1.75;;;;;;;2.85;100.00;99852.44;5055363;28;20027;-73
2023/01/19 04:35:18;;;;;;;12.73;1.95;;;;;;;2.89;100.00;99854.31;5056735;28;20447;-74
2023/01/19 04:37:46;;;;;;;13.10;1.75;;;;;;;2.94;100.00;99851.84;5058226;28;20033;-73
2023/01/19 04:40:12;;;;;;;17.65;1.98;;;;;;;2.98;100.00;99858.91;5054859;28;20484;-73
2023/01/19 04:42:37;;;;;;;16.35;1.48;;;;;;;2.99;100.00;99856.34;5055668;28;20074;-72
2023/01/19 04:45:03;;;;;;;16.13;2.05;;;;;;;3.02;100.00;99861.63;5059890;28;20681;-74
2023/01/19 04:47:28;;;;;;;10.23;1.48;;;;;;;3.00;100.00;99863.31;5059715;28;20108;-73
2023/01/19 04:49:54;;;;;;;11.75;1.80;;;;;;;2.96;100.00;99864.03;5056804;28;20037;-73
2023/01/19 04:52:19;;;;;;;18.50;2.40;;;;;;;2.92;100.00;99864.78;5055257;28;20028;-73
2023/01/19 04:54:44;;;;;;;22.92;1.60;;;;;;;2.91;100.00;99867.34;5061908;28;20361;-73
2023/01/19 04:57:10;;;;;;;15.02;1.85;;;;;;;2.88;100.00;99865.53;5052453;28;21909;-73
2023/01/19 04:59:35;;;;;;;23.48;2.30;;;;;;;2.90;100.00;99871.63;5052603;28;20059;-73
2023/01/19 05:02:00;;;;;;;13.77;1.85;;;;;;;2.90;100.00;99875.97;5055510;28;20090;-73
2023/01/19 05:04:26;;;;;;;12.88;1.75;;;;;;;2.93;100.00;99871.75;5055761;28;20032;-72
2023/01/19 05:06:53;;;;;;;16.92;2.50;;;;;;;2.97;100.00;99873.63;5059192;28;20033;-73
2023/01/19 05:09:18;;;;;;;23.08;1.90;;;;;;;2.98;100.00;99872.75;5056108;28;20507;-74
2023/01/19 05:11:43;;;;;;;12.23;2.15;;;;;;;3.00;100.00;99872.84;5056756;28;20035;-73
2023/01/19 05:14:09;;;;;;;20.23;1.80;;;;;;;2.97;100.00;99876.22;5060823;28;20024;-72
2023/01/19 05:16:35;;;;;;;14.85;1.63;;;;;;;2.98;100.00;99877.97;5057577;28;20027;-73
2023/01/19 05:19:00;;;;;;;13.55;1.27;;;;;;;3.00;100.00;99880.63;5050283;28;20029;-72
2023/01/19 05:21:25;;;;;;;21.65;3.35;;;;;;;3.01;100.00;99880.66;5052917;28;20036;-74
2023/01/19 05:23:51;;;;;;;12.70;2.45;;;;;;;3.02;100.00;99890.22;5057634;28;20032;-74
2023/01/19 05:26:16;;;;;;;13.70;2.38;;;;;;;3.08;100.00;99886.03;5060141;28;20033;-74
2023/01/19 05:28:41;;;;;;;12.93;1.55;;;;;;;3.05;100.00;99884.22;5061330;28;20032;-73
2023/01/19 05:31:07;;;;;;;18.92;1.83;;;;;;;3.01;100.00;99888.47;5052203;28;20021;-73
2023/01/19 05:33:32;;;;;;;7.90;1.80;;;;;;;3.03;100.00;99889.38;5065838;28;20028;-73
2023/01/19 05:35:57;;;;;;;16.45;1.77;;;;;;;3.03;100.00;99893.72;5057658;28;20399;-74
2023/01/19 05:38:23;;;;;;;11.60;1.35;;;;;;;3.03;100.00;99899.78;5058041;28;20103;-73
2023/01/19 05:40:48;;;;;;;19.65;2.20;;;;;;;3.03;100.00;99904.09;5057333;28;20445;-73
2023/01/19 05:43:14;;;;;;;16.55;1.50;;;;;;;3.07;100.00;99897.31;5060387;28;20111;-72
2023/01/19 05:45:40;;;;;;;15.88;2.28;;;;;;;3.10;100.00;99907.78;5055059;28;20032;-74
2023/01/19 05:48:06;;;;;;;8.38;0.95;;;;;;;3.08;100.00;99902.53;5062215;28;20108;-72
2023/01/19 05:50:33;;;;;;;11.45;1.08;;;;;;;3.11;100.00;99909.56;5063871;28;20660;-73
2023/01/19 05:52:59;;;;;;;13.02;2.15;;;;;;;3.09;100.00;99919.00;5069164;28;20411;-73
2023/01/19 05:55:24;;;;;;;13.15;1.50;;;;;;;3.07;100.00;99911.16;5057359;28;20025;-73
2023/01/19 05:57:50;;;;;;;25.17;2.20;;;;;;;3.00;100.00;99919.63;5055296;28;20032;-72
2023/01/19 06:00:16;;;;;;;8.15;1.30;;;;;;;2.98;100.00;99916.94;5057876;28;20016;-73
2023/01/19 06:02:41;;;;;;;17.23;1.45;;;;;;;2.96;100.00;99917.75;5060193;28;20113;-73
2023/01/19 06:05:07;;;;;;;13.50;1.60;;;;;;;2.97;100.00;99919.50;5055261;28;20072;-73
2023/01/19 06:07:32;;;;;;;22.17;2.53;;;;;;;2.95;100.00;99916.84;5058354;28;20029;-73
2023/01/19 06:09:58;;;;;;;14.10;2.40;;;;;;;2.99;100.00;99923.91;5060246;28;20031;-74
2023/01/19 06:12:23;;;;;;;13.50;2.13;;;;;;;3.02;100.00;99924.00;5055881;28;20043;-74
2023/01/19 06:14:49;;;;;;;24.67;1.83;;;;;;;3.02;100.00;99930.91;5055816;28;20084;-74
2023/01/19 06:17:14;;;;;;;11.35;1.80;;;;;;;3.04;100.00;99948.34;5057879;28;20096;-74
2023/01/19 06:19:40;;;;;;;18.55;3.80;;;;;;;3.13;100.00;99946.88;5048803;28;20781;-72
2023/01/19 06:22:06;;;;;;;17.38;1.35;;;;;;;3.15;100.00;99951.28;5050200;28;20534;-73
2023/01/19 06:24:31;;;;;;;7.90;1.23;;;;;;;3.13;100.00;99949.47;5049105;28;20036;-74
2023/01/19 06:26:57;;;;;;;5.20;0.95;;;;;;;3.12;100.00;99946.00;5055533;28;20112;-73
2023/01/19 06:29:22;;;;;;;11.25;1.73;;;;;;;3.12;100.00;99955.50;5047877;28;20044;-73
2023/01/19 06:31:48;;;;;;;7.13;1.33;;;;;;;3.07;100.00;99959.69;5049687;28;20037;-74
2023/01/19 06:34:13;;;;;;;7.47;1.50;;;;;;;3.07;100.00;99959.69;5046286;28;20030;-73
2023/01/19 06:36:39;;;;;;;12.85;1.10;;;;;;;3.07;100.00;99970.06;5048115;28;20033;-73
2023/01/19 06:39:05;;;;;;;7.25;1.30;;;;;;;3.05;100.00;99975.19;5041715;28;20028;-74
2023/01/19 06:41:34;;;;;;;7.65;1.65;;;;;;;3.03;100.00;99980.34;5045975;28;20025;-73
2023/01/19 06:43:59;;;;;;;13.30;1.02;;;;;;;3.06;100.00;99987.38;5038713;28;20029;-74
2023/01/19 06:46:26;;;;;;;9.30;1.38;;;;;;;3.12;100.00;99987.59;5052294;28;20449;-73
2023/01/19 06:48:52;;;;;;;10.25;2.03;;;;;;;3.14;100.00;99995.44;5053543;28;20411;-72
2023/01/19 06:51:17;;;;;;;8.57;1.70;;;;;;;3.14;100.00;99995.44;5050155;28;20108;-74
2023/01/19 06:53:42;;;;;;;5.15;1.92;;;;;;;3.08;100.00;99998.72;5053536;28;20170;-73
2023/01/19 06:56:08;;;;;;;11.88;1.80;;;;;;;3.09;100.00;99999.59;5045443;28;20032;-74
2023/01/19 06:58:34;;;;;;;7.82;1.85;;;;;;;3.08;100.00;99996.13;5055353;28;20396;-73
2023/01/19 07:01:02;;;;;;;17.85;1.88;;;;;;;3.13;100.00;99998.84;5060272;28;20486;-73
2023/01/19 07:03:27;;;;;;;12.68;1.45;;;;;;;3.16;100.00;99998.94;5061510;28;20049;-75
2023/01/19 07:05:53;;;;;;;9.80;2.00;;;;;;;3.23;100.00;100000.94;5051701;28;20045;-75
2023/01/19 07:08:18;;;;;;;12.95;1.20;;;;;;;3.24;100.00;100018.28;5053877;28;20029;-74
2023/01/19 07:10:44;;;;;;;6.13;1.02;;;;;;;3.26;100.00;100016.63;5055063;28;20033;-73
2023/01/19 07:13:09;;;;;;;7.22;1.52;;;;;;;3.25;100.00;100007.03;5054388;28;20025;-74
2023/01/19 07:15:36;;;;;;;9.95;1.27;;;;;;;3.24;100.00;100023.47;5051699;28;20483;-73
2023/01/19 07:18:06;;;;;;;4.30;1.15;;;;;;;3.24;100.00;100026.06;5055518;28;20025;-73
2023/01/19 07:20:32;;;;;;;7.30;1.38;;;;;;;3.27;100.00;100027.88;5050801;28;20405;-73
2023/01/19 07:22:57;;;;;;;13.60;1.60;;;;;;;3.27;100.00;100026.19;5054884;28;20021;-73
2023/01/19 07:25:22;;;;;;;8.68;1.42;;;;;;;3.26;100.00;100031.34;5057515;28;20035;-74
2023/01/19 07:27:48;;;;;;;15.98;1.10;;;;;;;3.25;100.00;100040.84;5055635;28;20464;-73
2023/01/19 07:30:14;;;;;;;6.35;0.82;;;;;;;3.20;100.00;100051.09;5056666;28;20487;-74
2023/01/19 07:32:41;;;;;;;4.47;1.17;;;;;;;3.18;100.00;100049.28;5053549;28;20468;-74
2023/01/19 07:35:08;;;;;;;2.63;1.02;;;;;;;3.11;100.00;100044.72;5051532;28;20094;-73
2023/01/19 07:37:34;;;;;;;6.00;1.17;;;;;;;3.08;100.00;100052.41;5055254;28;20031;-74
2023/01/19 07:39:59;;;;;;;10.93;1.30;;;;;;;3.08;100.00;100060.19;5056430;28;20107;-74
2023/01/19 07:42:24;;;;;;;10.77;1.27;;;;;;;3.08;100.00;100058.50;5052179;28;20021;-72
2023/01/19 07:44:50;;;;;;;16.35;1.00;;;;;;;3.09;100.00;100061.97;5047038;28;20029;-74
2023/01/19 07:47:15;;;;;;;7.15;0.75;;;;;;;3.08;100.00;100068.00;5062695;28;20044;-73
2023/01/19 07:49:41;;;;;;;9.45;1.30;;;;;;;3.02;100.00;100064.34;5052263;28;20031;-74
2023/01/19 07:52:06;;;;;;;6.05;1.60;;;;;;;2.97;100.00;100065.03;5063829;28;20061;-73
2023/01/19 07:54:32;;;;;;;8.40;1.80;;;;;;;2.91;100.00;100075.22;5048731;28;20104;-73
2023/01/19 07:56:59;;;;;;;9.18;1.38;;;;;;;2.90;100.00;100082.09;5053952;28;20025;-74
2023/01/19 07:59:25;;;;;;;14.02;1.70;;;;;;;2.89;100.00;100082.97;5048176;28;20029;-73
2023/01/19 08:01:52;;;;;;;11.60;1.77;;;;;;;2.86;100.00;100090.63;5053064;28;20033;-74
2023/01/19 08:04:17;;;;;;;16.88;1.30;;;;;;;2.82;100.00;100091.34;5052455;28;20060;-74
2023/01/19 08:06:46;;;;;;;11.73;1.13;;;;;;;2.82;100.00;100096.53;5054025;28;20029;-74
2023/01/19 08:09:11;;;;;;;6.30;1.48;;;;;;;2.83;100.00;100098.31;5053746;28;20028;-74
2023/01/19 08:11:37;;;;;;;11.23;1.23;;;;;;;2.77;100.00;100103.28;5061617;28;20074;-74
2023/01/19 08:14:02;;;;;;;8.02;1.10;;;;;;;2.76;100.00;100105.00;5053359;28;20044;-75
2023/01/19 08:16:28;;;;;;;6.18;1.27;;;;;;;2.77;100.00;100109.38;5054451;28;20025;-74
2023/01/19 08:18:53;;;;;;;10.98;1.23;;;;;;;2.78;100.00;100110.25;5066286;28;20028;-72
2023/01/19 08:21:18;;;;;;;6.50;0.98;;;;;;;2.86;100.00;100114.00;5062386;28;20111;-74
2023/01/19 08:23:50;;;;;;;5.55;0.90;;;;;;;2.87;100.00;100123.59;5065910;28;20555;-75
2023/01/19 08:26:26;;;;;;;6.07;1.27;;;;;;;2.87;100.00;100123.59;5056305;28;20487;-75
2023/01/19 08:28:54;;;;;;;8.43;2.60;;;;;;;2.89;100.00;100124.53;5053274;28;20021;-73
2023/01/19 08:31:20;;;;;;;8.93;1.40;;;;;;;2.85;100.00;100127.84;5053177;28;20497;-74
2023/01/19 08:33:45;;;;;;;11.50;1.90;;;;;;;2.80;100.00;100129.41;5061431;28;20051;-74
2023/01/19 08:36:10;;;;;;;3.20;1.05;;;;;;;2.79;100.00;100119.81;5057993;28;20120;-74
2023/01/19 08:38:38;;;;;;;10.27;1.50;;;;;;;2.84;100.00;100134.75;5062908;28;20017;-74
2023/01/19 08:41:04;;;;;;;13.65;1.67;;;;;;;2.80;100.00;100139.78;5054704;28;20029;-75
2023/01/19 08:43:29;;;;;;;4.13;1.02;;;;;;;2.76;100.00;100132.72;5061662;28;20350;-74
2023/01/19 08:45:55;;;;;;;12.70;1.30;;;;;;;2.77;100.00;100139.66;5064540;28;20032;-74
2023/01/19 08:48:21;;;;;;;5.05;1.15;;;;;;;2.77;100.00;100135.38;5057267;28;20071;-74
2023/01/19 08:50:48;;;;;;;8.88;1.35;;;;;;;2.77;100.00;100140.56;5064582;28;20035;-73
2023/01/19 08:53:14;;;;;;;7.85;1.20;;;;;;;2.82;100.00;100145.91;5067161;28;20078;-75
2023/01/19 08:55:39;;;;;;;17.23;1.30;;;;;;;2.85;100.00;100143.44;5063270;28;20507;-74
2023/01/19 08:58:07;;;;;;;6.97;1.00;;;;;;;2.88;100.00;100143.56;5053931;28;20053;-74
2023/01/19 09:00:33;;;;;;;4.50;0.95;;;;;;;2.90;100.00;100136.69;5054464;28;20048;-74
2023/01/19 09:03:03;;;;;;;5.15;1.00;;;;;;;2.93;100.00;100147.22;5061330;28;20049;-74
2023/01/19 09:05:30;;;;;;;3.70;1.10;;;;;;;2.95;100.00;100140.34;5060252;28;20024;-74
2023/01/19 09:07:57;;;;;;;6.45;1.10;;;;;;;3.04;100.00;100155.38;5056091;28;20106;-74
2023/01/19 09:10:22;;;;;;;8.18;1.30;;;;;;;3.10;100.00;100150.38;5058652;28;20025;-73
2023/01/19 09:12:49;;;;;;;7.35;1.02;;;;;;;3.14;100.00;100151.41;5054888;28;20025;-74
2023/01/19 09:15:14;;;;;;;12.25;1.05;;;;;;;3.18;100.00;100153.28;5052359;28;20027;-76
2023/01/19 09:17:41;;;;;;;7.35;1.30;;;;;;;3.23;100.00;100162.13;5051267;28;20450;-74
2023/01/19 09:20:07;;;;;;;6.75;1.20;;;;;;;3.30;100.00;100158.91;5051571;28;20029;-74
2023/01/19 09:22:33;;;;;;;8.43;1.73;;;;;;;3.34;100.00;100160.78;5050548;28;20036;-74
2023/01/19 09:24:59;;;;;;;13.07;1.83;;;;;;;3.40;100.00;100170.50;5053212;28;20017;-74
2023/01/19 09:27:24;;;;;;;8.27;1.55;;;;;;;3.47;100.00;100166.38;5056533;28;20024;-75
2023/01/19 09:29:52;;;;;;;6.13;1.30;;;;;;;3.57;100.00;100167.59;5050737;28;20036;-74
2023/01/19 09:32:19;;;;;;;9.77;2.17;;;;;;;3.64;100.00;100173.06;5049967;28;20025;-74
2023/01/19 09:34:45;;;;;;;11.77;1.40;;;;;;;3.71;100.00;100177.63;5054784;28;20028;-73
2023/01/19 09:37:11;;;;;;;6.28;1.15;;;;;;;3.81;100.00;100180.53;5057693;28;20032;-74
2023/01/19 09:39:37;;;;;;;2.72;0.77;;;;;;;3.92;100.00;100181.78;5051620;28;20409;-74
2023/01/19 09:42:18;;;;;;;9.15;1.90;;;;;;;4.05;100.00;100181.31;5046617;28;20025;-74
2023/01/19 09:44:45;;;;;;;7.32;1.27;;;;;;;4.15;100.00;100179.03;5052352;28;20078;-74
2023/01/19 09:47:18;;;;;;;9.80;1.50;;;;;;;4.36;99.37;100189.25;5051306;28;20033;-76
2023/01/19 09:49:53;;;;;;;5.97;1.10;;;;;;;4.66;100.00;100188.41;5056786;28;20039;-74
2023/01/19 09:52:19;;;;;;;4.97;1.27;;;;;;;4.89;93.81;100197.78;5061162;28;20739;-75
2023/01/19 09:54:55;;;;;;;8.50;0.88;;;;;;;5.02;84.63;100193.81;5059184;28;20093;-75
2023/01/19 09:57:24;;;;;;;3.55;0.65;;;;;;;5.07;81.59;100192.22;5054255;28;20032;-74
2023/01/19 09:59:50;;;;;;;5.72;0.90;;;;;;;5.28;83.16;100195.41;5056256;28;20027;-74
2023/01/19 10:02:18;;;;;;;7.30;0.75;;;;;;;5.45;81.66;100198.44;5055015;28;20029;-73
2023/01/19 10:05:01;;;;;;;14.82;1.50;;;;;;;5.55;81.47;100200.47;5055358;28;20032;-74
2023/01/19 10:07:52;;;;;;;7.97;1.40;;;;;;;5.64;74.44;100210.25;5056118;28;20041;-74
2023/01/19 10:10:25;;;;;;;3.17;0.60;;;;;;;5.80;75.39;100211.53;5065478;28;20032;-75
2023/01/19 10:12:56;;;;;;;3.63;0.63;;;;;;;5.83;73.90;100211.59;5051843;28;20123;-73
2023/01/19 10:15:27;;;;;;;9.88;0.90;;;;;;;5.61;76.28;100218.00;5055782;28;20035;-75
2023/01/19 10:18:12;;;;;;;4.47;0.90;;;;;;;5.54;76.67;100214.34;5053268;28;20021;-73
2023/01/19 10:20:58;;;;;;;7.22;0.85;;;;;;;5.76;79.14;100209.69;5054417;28;20025;-74
2023/01/19 10:23:51;;;;;;;5.15;0.85;;;;;;;6.01;74.47;100216.44;5067434;28;20421;-74
2023/01/19 10:26:22;;;;;;;6.47;0.70;;;;;;;6.08;74.02;100211.41;5056258;28;20091;-73
2023/01/19 10:28:50;;;;;;;1.90;0.47;;;;;;;5.80;74.62;100220.25;5057456;28;20423;-74
2023/01/19 10:31:22;;;;;;;5.50;0.55;;;;;;;5.82;75.57;100225.50;5065151;28;20105;-73
2023/01/19 10:33:49;;;;;;;3.78;0.90;;;;;;;5.70;73.09;100229.56;5054762;28;20025;-74
2023/01/19 10:36:40;;;;;;;5.40;1.20;;;;;;;5.62;70.42;100228.47;5052953;28;20028;-74
2023/01/19 10:39:07;;;;;;;1.48;0.65;;;;;;;6.11;70.95;100231.50;5050514;28;20396;-73
2023/01/19 10:41:42;;;;;;;4.13;0.88;;;;;;;6.52;66.30;100215.03;5054578;28;20016;-72
2023/01/19 10:44:09;;;;;;;3.78;0.88;;;;;;;6.35;63.15;100228.59;5053626;28;20039;-74
2023/01/19 10:46:42;;;;;;;1.73;0.70;;;;;;;6.58;64.03;100225.66;5056724;28;20028;-73
2023/01/19 10:49:36;;;;;;;4.65;1.10;;;;;;;6.85;61.75;100227.09;5054053;28;20028;-74
2023/01/19 10:52:03;;;;;;;7.40;1.13;;;;;;;6.35;61.01;100223.38;5055253;28;20083;-74
2023/01/19 10:54:30;;;;;;;3.53;1.05;;;;;;;5.65;62.69;100223.34;5062746;28;20029;-74
2023/01/19 10:57:02;;;;;;;4.13;0.80;;;;;;;5.18;65.42;100220.31;5064476;28;20063;-73
2023/01/19 10:59:39;;;;;;;3.95;0.77;;;;;;;5.18;66.57;100215.09;5055510;28;20083;-74
2023/01/19 11:02:33;;;;;;;5.68;0.60;;;;;;;5.65;65.29;100230.28;5052265;28;20380;-73
2023/01/19 11:05:01;;;;;;;5.13;0.80;;;;;;;6.43;60.98;100230.50;5055144;28;20032;-72
2023/01/19 11:07:33;;;;;;;5.10;1.05;;;;;;;6.82;59.12;100232.25;5054594;28;20132;-74
2023/01/19 11:10:14;;;;;;;3.08;0.70;;;;;;;7.29;58.64;100224.53;5053456;28;20078;-74
2023/01/19 11:12:45;;;;;;;5.88;1.20;;;;;;;7.90;57.00;100227.41;5050884;28;20037;-75
2023/01/19 11:15:15;;;;;;;1.92;0.60;;;;;;;7.42;54.49;100225.66;5053509;28;20481;-73
2023/01/19 11:17:44;;;;;;;2.15;0.70;;;;;;;7.06;55.92;100232.78;5054975;28;20055;-74
2023/01/19 11:20:28;;;;;;;4.22;0.80;;;;;;;7.25;55.75;100231.41;5061179;28;20111;-73
2023/01/19 11:23:16;;;;;;;4.40;0.68;;;;;;;7.06;56.57;100232.78;5051489;28;20071;-74
2023/01/19 11:25:46;;;;;;;6.90;1.13;;;;;;;7.21;57.88;100228.72;5052836;28;20051;-73
2023/01/19 11:28:21;;;;;;;12.60;1.10;;;;;;;7.58;55.14;100234.66;5048224;28;20021;-72
2023/01/19 11:30:58;;;;;;;5.65;0.80;;;;;;;7.96;55.24;100229.22;5050092;28;20059;-73
2023/01/19 11:33:31;;;;;;;7.70;1.10;;;;;;;8.25;53.75;100223.63;5051163;28;20215;-73
2023/01/19 11:36:14;;;;;;;7.72;1.48;;;;;;;7.70;53.41;100231.41;5053855;28;20107;-73
2023/01/19 11:38:42;;;;;;;4.72;0.75;;;;;;;6.67;54.58;100224.97;5053140;28;20456;-73
2023/01/19 11:41:15;;;;;;;2.67;0.77;;;;;;;7.04;54.98;100234.50;5054567;28;20020;-73
2023/01/19 11:43:41;;;;;;;5.00;0.95;;;;;;;7.38;53.50;100221.19;5052032;28;20065;-73